sensor_id;sensor_type;location;lat;lon;timestamp;P1;durP1;ratioP1;P2;durP2;ratioP2
71679;SDS011;59512;42.662;23.254;2022-08-19T00:01:48;8.35;;;4.80;;
71679;SDS011;59512;42.662;23.254;2022-08-19T00:04:14;9.45;;;4.95;;
71679;SDS011;59512;42.662;23.254;2022-08-19T00:06:41;9.40;;;5.00;;
71679;SDS011;59512;42.662;23.254;2022-08-19T00:09:08;7.25;;;4.88;;
71679;SDS011;59512;42.662;23.254;2022-08-19T00:11:34;7.22;;;4.65;;
71679;SDS011;59512;42.662;23.254;2022-08-19T00:14:01;8.80;;;5.00;;
71679;SDS011;59512;42.662;23.254;2022-08-19T00:16:27;9.17;;;5.20;;
71679;SDS011;59512;42.662;23.254;2022-08-19T00:18:53;6.95;;;4.85;;
71679;SDS011;59512;42.662;23.254;2022-08-19T00:21:18;8.73;;;5.03;;
71679;SDS011;59512;42.662;23.254;2022-08-19T00:23:44;8.23;;;5.13;;
71679;SDS011;59512;42.662;23.254;2022-08-19T00:26:10;9.70;;;5.63;;
71679;SDS011;59512;42.662;23.254;2022-08-19T00:28:35;9.45;;;5.18;;
71679;SDS011;59512;42.662;23.254;2022-08-19T00:31:02;8.13;;;4.90;;
71679;SDS011;59512;42.662;23.254;2022-08-19T00:33:28;8.35;;;5.15;;
71679;SDS011;59512;42.662;23.254;2022-08-19T00:35:54;8.20;;;4.97;;
71679;SDS011;59512;42.662;23.254;2022-08-19T00:38:20;9.77;;;5.53;;
71679;SDS011;59512;42.662;23.254;2022-08-19T00:40:47;8.02;;;5.22;;
71679;SDS011;59512;42.662;23.254;2022-08-19T00:43:13;8.35;;;5.40;;
71679;SDS011;59512;42.662;23.254;2022-08-19T00:45:39;8.80;;;4.50;;
71679;SDS011;59512;42.662;23.254;2022-08-19T00:48:06;8.93;;;5.43;;
71679;SDS011;59512;42.662;23.254;2022-08-19T00:50:31;8.30;;;5.13;;
71679;SDS011;59512;42.662;23.254;2022-08-19T00:52:57;7.53;;;4.83;;
71679;SDS011;59512;42.662;23.254;2022-08-19T00:55:24;8.68;;;5.40;;
71679;SDS011;59512;42.662;23.254;2022-08-19T00:57:51;9.73;;;5.40;;
71679;SDS011;59512;42.662;23.254;2022-08-19T01:00:19;7.95;;;4.80;;
71679;SDS011;59512;42.662;23.254;2022-08-19T01:02:45;9.63;;;5.67;;
71679;SDS011;59512;42.662;23.254;2022-08-19T01:05:13;9.32;;;5.40;;
71679;SDS011;59512;42.662;23.254;2022-08-19T01:07:40;8.88;;;5.78;;
71679;SDS011;59512;42.662;23.254;2022-08-19T01:10:07;9.57;;;5.63;;
71679;SDS011;59512;42.662;23.254;2022-08-19T01:12:33;8.52;;;5.78;;
71679;SDS011;59512;42.662;23.254;2022-08-19T01:14:59;8.50;;;5.63;;
71679;SDS011;59512;42.662;23.254;2022-08-19T01:17:24;10.80;;;6.03;;
71679;SDS011;59512;42.662;23.254;2022-08-19T01:19:50;7.80;;;5.40;;
71679;SDS011;59512;42.662;23.254;2022-08-19T01:24:43;8.95;;;5.68;;
71679;SDS011;59512;42.662;23.254;2022-08-19T01:27:09;9.07;;;5.53;;
71679;SDS011;59512;42.662;23.254;2022-08-19T01:29:36;10.93;;;5.70;;
71679;SDS011;59512;42.662;23.254;2022-08-19T01:32:01;8.48;;;5.65;;
71679;SDS011;59512;42.662;23.254;2022-08-19T01:34:27;8.77;;;5.65;;
71679;SDS011;59512;42.662;23.254;2022-08-19T01:36:52;14.00;;;6.30;;
71679;SDS011;59512;42.662;23.254;2022-08-19T01:39:20;9.80;;;5.83;;
71679;SDS011;59512;42.662;23.254;2022-08-19T01:41:46;8.30;;;5.35;;
71679;SDS011;59512;42.662;23.254;2022-08-19T01:44:12;7.93;;;5.60;;
71679;SDS011;59512;42.662;23.254;2022-08-19T01:46:37;8.20;;;5.60;;
71679;SDS011;59512;42.662;23.254;2022-08-19T01:49:04;9.00;;;6.28;;
71679;SDS011;59512;42.662;23.254;2022-08-19T01:51:29;11.33;;;6.23;;
71679;SDS011;59512;42.662;23.254;2022-08-19T01:53:55;9.35;;;5.97;;
71679;SDS011;59512;42.662;23.254;2022-08-19T01:56:21;10.05;;;6.40;;
71679;SDS011;59512;42.662;23.254;2022-08-19T01:58:49;8.48;;;5.90;;
71679;SDS011;59512;42.662;23.254;2022-08-19T02:01:16;9.48;;;6.10;;
71679;SDS011;59512;42.662;23.254;2022-08-19T02:03:41;9.20;;;6.47;;
71679;SDS011;59512;42.662;23.254;2022-08-19T02:06:06;10.07;;;5.97;;
71679;SDS011;59512;42.662;23.254;2022-08-19T02:08:32;8.87;;;5.33;;
71679;SDS011;59512;42.662;23.254;2022-08-19T02:10:58;9.00;;;5.80;;
71679;SDS011;59512;42.662;23.254;2022-08-19T02:13:24;9.43;;;5.80;;
71679;SDS011;59512;42.662;23.254;2022-08-19T02:15:50;10.57;;;5.60;;
71679;SDS011;59512;42.662;23.254;2022-08-19T02:18:15;9.53;;;5.90;;
71679;SDS011;59512;42.662;23.254;2022-08-19T02:20:41;8.70;;;5.67;;
71679;SDS011;59512;42.662;23.254;2022-08-19T02:23:07;9.75;;;5.97;;
71679;SDS011;59512;42.662;23.254;2022-08-19T02:25:32;9.35;;;6.25;;
71679;SDS011;59512;42.662;23.254;2022-08-19T02:27:58;12.18;;;6.80;;
71679;SDS011;59512;42.662;23.254;2022-08-19T02:30:23;9.80;;;6.03;;
71679;SDS011;59512;42.662;23.254;2022-08-19T02:32:49;9.57;;;6.00;;
71679;SDS011;59512;42.662;23.254;2022-08-19T02:35:15;8.90;;;5.90;;
71679;SDS011;59512;42.662;23.254;2022-08-19T02:37:41;10.10;;;6.23;;
71679;SDS011;59512;42.662;23.254;2022-08-19T02:40:25;10.00;;;5.80;;
71679;SDS011;59512;42.662;23.254;2022-08-19T02:42:51;9.07;;;6.45;;
71679;SDS011;59512;42.662;23.254;2022-08-19T02:45:16;8.70;;;6.10;;
71679;SDS011;59512;42.662;23.254;2022-08-19T02:47:42;10.70;;;6.30;;
71679;SDS011;59512;42.662;23.254;2022-08-19T02:50:07;11.15;;;6.03;;
71679;SDS011;59512;42.662;23.254;2022-08-19T02:52:33;12.87;;;6.40;;
71679;SDS011;59512;42.662;23.254;2022-08-19T02:54:59;8.75;;;6.03;;
71679;SDS011;59512;42.662;23.254;2022-08-19T02:57:25;9.07;;;6.25;;
71679;SDS011;59512;42.662;23.254;2022-08-19T02:59:50;9.23;;;5.68;;
71679;SDS011;59512;42.662;23.254;2022-08-19T03:02:15;9.47;;;6.33;;
71679;SDS011;59512;42.662;23.254;2022-08-19T03:04:41;11.40;;;6.30;;
71679;SDS011;59512;42.662;23.254;2022-08-19T03:07:07;9.48;;;6.05;;
71679;SDS011;59512;42.662;23.254;2022-08-19T03:09:32;11.10;;;6.10;;
71679;SDS011;59512;42.662;23.254;2022-08-19T03:11:58;11.50;;;5.97;;
71679;SDS011;59512;42.662;23.254;2022-08-19T03:14:23;10.23;;;6.33;;
71679;SDS011;59512;42.662;23.254;2022-08-19T03:16:49;10.83;;;6.63;;
71679;SDS011;59512;42.662;23.254;2022-08-19T03:19:16;10.15;;;6.70;;
71679;SDS011;59512;42.662;23.254;2022-08-19T03:21:41;10.90;;;6.70;;
71679;SDS011;59512;42.662;23.254;2022-08-19T03:24:07;9.17;;;6.43;;
71679;SDS011;59512;42.662;23.254;2022-08-19T03:26:33;10.02;;;6.63;;
71679;SDS011;59512;42.662;23.254;2022-08-19T03:29:02;9.65;;;6.95;;
71679;SDS011;59512;42.662;23.254;2022-08-19T03:31:28;9.93;;;6.70;;
71679;SDS011;59512;42.662;23.254;2022-08-19T03:33:53;10.30;;;7.00;;
71679;SDS011;59512;42.662;23.254;2022-08-19T03:36:20;15.03;;;7.10;;
71679;SDS011;59512;42.662;23.254;2022-08-19T03:38:49;9.27;;;6.67;;
71679;SDS011;59512;42.662;23.254;2022-08-19T03:41:18;9.70;;;6.75;;
71679;SDS011;59512;42.662;23.254;2022-08-19T03:43:44;10.45;;;6.95;;
71679;SDS011;59512;42.662;23.254;2022-08-19T03:46:14;11.02;;;6.78;;
71679;SDS011;59512;42.662;23.254;2022-08-19T03:48:40;12.15;;;7.13;;
71679;SDS011;59512;42.662;23.254;2022-08-19T03:51:07;12.70;;;8.10;;
71679;SDS011;59512;42.662;23.254;2022-08-19T03:53:33;13.52;;;7.03;;
71679;SDS011;59512;42.662;23.254;2022-08-19T03:55:59;9.60;;;5.53;;
71679;SDS011;59512;42.662;23.254;2022-08-19T03:58:25;13.57;;;6.97;;
71679;SDS011;59512;42.662;23.254;2022-08-19T04:00:50;17.90;;;7.47;;
71679;SDS011;59512;42.662;23.254;2022-08-19T04:03:15;11.23;;;7.23;;
71679;SDS011;59512;42.662;23.254;2022-08-19T04:05:41;11.97;;;7.37;;
71679;SDS011;59512;42.662;23.254;2022-08-19T04:08:06;10.33;;;7.17;;
71679;SDS011;59512;42.662;23.254;2022-08-19T04:10:35;11.10;;;7.27;;
71679;SDS011;59512;42.662;23.254;2022-08-19T04:13:00;13.77;;;7.70;;
71679;SDS011;59512;42.662;23.254;2022-08-19T04:15:26;12.00;;;7.73;;
71679;SDS011;59512;42.662;23.254;2022-08-19T04:17:52;12.25;;;7.57;;
71679;SDS011;59512;42.662;23.254;2022-08-19T04:20:18;11.80;;;7.70;;
71679;SDS011;59512;42.662;23.254;2022-08-19T04:22:43;14.03;;;8.00;;
71679;SDS011;59512;42.662;23.254;2022-08-19T04:25:08;10.70;;;6.97;;
71679;SDS011;59512;42.662;23.254;2022-08-19T04:27:34;11.32;;;7.15;;
71679;SDS011;59512;42.662;23.254;2022-08-19T04:29:59;12.20;;;7.70;;
71679;SDS011;59512;42.662;23.254;2022-08-19T04:32:24;11.40;;;7.27;;
71679;SDS011;59512;42.662;23.254;2022-08-19T04:34:50;12.10;;;7.10;;
71679;SDS011;59512;42.662;23.254;2022-08-19T04:37:15;10.80;;;6.93;;
71679;SDS011;59512;42.662;23.254;2022-08-19T04:39:40;13.83;;;7.13;;
71679;SDS011;59512;42.662;23.254;2022-08-19T04:42:24;12.63;;;7.25;;
71679;SDS011;59512;42.662;23.254;2022-08-19T04:45:09;12.40;;;8.20;;
71679;SDS011;59512;42.662;23.254;2022-08-19T04:47:35;15.30;;;8.50;;
71679;SDS011;59512;42.662;23.254;2022-08-19T04:50:01;19.13;;;8.63;;
71679;SDS011;59512;42.662;23.254;2022-08-19T04:52:27;18.83;;;9.43;;
71679;SDS011;59512;42.662;23.254;2022-08-19T04:54:53;15.07;;;8.80;;
71679;SDS011;59512;42.662;23.254;2022-08-19T04:57:20;15.25;;;9.10;;
71679;SDS011;59512;42.662;23.254;2022-08-19T04:59:45;14.47;;;9.03;;
71679;SDS011;59512;42.662;23.254;2022-08-19T05:02:12;13.93;;;8.85;;
71679;SDS011;59512;42.662;23.254;2022-08-19T05:04:37;20.27;;;10.83;;
71679;SDS011;59512;42.662;23.254;2022-08-19T05:07:04;21.92;;;10.40;;
71679;SDS011;59512;42.662;23.254;2022-08-19T05:09:29;18.67;;;9.50;;
71679;SDS011;59512;42.662;23.254;2022-08-19T05:11:55;19.48;;;9.23;;
71679;SDS011;59512;42.662;23.254;2022-08-19T05:14:20;17.67;;;8.53;;
71679;SDS011;59512;42.662;23.254;2022-08-19T05:16:46;17.38;;;8.98;;
71679;SDS011;59512;42.662;23.254;2022-08-19T05:19:12;17.30;;;8.95;;
71679;SDS011;59512;42.662;23.254;2022-08-19T05:21:55;18.35;;;8.75;;
71679;SDS011;59512;42.662;23.254;2022-08-19T05:24:39;26.40;;;9.98;;
71679;SDS011;59512;42.662;23.254;2022-08-19T05:27:05;16.98;;;8.95;;
71679;SDS011;59512;42.662;23.254;2022-08-19T05:29:30;16.20;;;8.67;;
71679;SDS011;59512;42.662;23.254;2022-08-19T05:31:59;17.17;;;9.45;;
71679;SDS011;59512;42.662;23.254;2022-08-19T05:34:25;21.65;;;9.13;;
71679;SDS011;59512;42.662;23.254;2022-08-19T05:36:55;19.60;;;9.10;;
71679;SDS011;59512;42.662;23.254;2022-08-19T05:39:23;15.18;;;9.35;;
71679;SDS011;59512;42.662;23.254;2022-08-19T05:41:49;17.27;;;9.23;;
71679;SDS011;59512;42.662;23.254;2022-08-19T05:44:15;16.00;;;9.15;;
71679;SDS011;59512;42.662;23.254;2022-08-19T05:46:43;17.63;;;9.05;;
71679;SDS011;59512;42.662;23.254;2022-08-19T05:49:08;16.30;;;8.93;;
71679;SDS011;59512;42.662;23.254;2022-08-19T05:51:34;18.93;;;8.90;;
71679;SDS011;59512;42.662;23.254;2022-08-19T05:54:01;18.60;;;9.13;;
71679;SDS011;59512;42.662;23.254;2022-08-19T05:56:26;22.73;;;9.48;;
71679;SDS011;59512;42.662;23.254;2022-08-19T05:58:52;23.27;;;9.40;;
71679;SDS011;59512;42.662;23.254;2022-08-19T06:01:20;24.88;;;10.27;;
71679;SDS011;59512;42.662;23.254;2022-08-19T06:03:45;19.13;;;9.63;;
71679;SDS011;59512;42.662;23.254;2022-08-19T06:06:12;19.90;;;9.13;;
71679;SDS011;59512;42.662;23.254;2022-08-19T06:08:38;19.13;;;9.68;;
71679;SDS011;59512;42.662;23.254;2022-08-19T06:13:41;19.23;;;10.13;;
71679;SDS011;59512;42.662;23.254;2022-08-19T06:16:06;19.92;;;10.80;;
71679;SDS011;59512;42.662;23.254;2022-08-19T06:18:32;18.23;;;9.40;;
71679;SDS011;59512;42.662;23.254;2022-08-19T06:20:58;17.15;;;9.35;;
71679;SDS011;59512;42.662;23.254;2022-08-19T06:23:23;17.80;;;9.53;;
71679;SDS011;59512;42.662;23.254;2022-08-19T06:25:48;16.97;;;9.00;;
71679;SDS011;59512;42.662;23.254;2022-08-19T06:28:14;15.80;;;9.57;;
71679;SDS011;59512;42.662;23.254;2022-08-19T06:30:39;14.30;;;9.03;;
71679;SDS011;59512;42.662;23.254;2022-08-19T06:33:04;20.03;;;9.63;;
71679;SDS011;59512;42.662;23.254;2022-08-19T06:35:29;19.30;;;10.33;;
71679;SDS011;59512;42.662;23.254;2022-08-19T06:37:55;15.80;;;9.60;;
71679;SDS011;59512;42.662;23.254;2022-08-19T06:40:20;17.67;;;9.80;;
71679;SDS011;59512;42.662;23.254;2022-08-19T06:42:46;19.77;;;10.33;;
71679;SDS011;59512;42.662;23.254;2022-08-19T06:45:11;20.13;;;10.13;;
71679;SDS011;59512;42.662;23.254;2022-08-19T06:47:36;24.38;;;10.38;;
71679;SDS011;59512;42.662;23.254;2022-08-19T06:50:02;16.85;;;10.25;;
71679;SDS011;59512;42.662;23.254;2022-08-19T06:52:34;19.10;;;10.88;;
71679;SDS011;59512;42.662;23.254;2022-08-19T06:55:00;23.17;;;10.82;;
71679;SDS011;59512;42.662;23.254;2022-08-19T06:57:26;19.60;;;10.35;;
71679;SDS011;59512;42.662;23.254;2022-08-19T06:59:52;21.50;;;10.95;;
71679;SDS011;59512;42.662;23.254;2022-08-19T07:02:17;20.63;;;10.60;;
71679;SDS011;59512;42.662;23.254;2022-08-19T07:04:43;18.67;;;10.30;;
71679;SDS011;59512;42.662;23.254;2022-08-19T07:07:10;14.57;;;10.03;;
71679;SDS011;59512;42.662;23.254;2022-08-19T07:09:37;17.42;;;9.77;;
71679;SDS011;59512;42.662;23.254;2022-08-19T07:12:04;19.45;;;10.85;;
71679;SDS011;59512;42.662;23.254;2022-08-19T07:14:31;19.67;;;10.02;;
71679;SDS011;59512;42.662;23.254;2022-08-19T07:16:56;18.60;;;9.93;;
71679;SDS011;59512;42.662;23.254;2022-08-19T07:19:23;18.30;;;9.43;;
71679;SDS011;59512;42.662;23.254;2022-08-19T07:21:50;16.10;;;8.98;;
71679;SDS011;59512;42.662;23.254;2022-08-19T07:24:17;16.17;;;8.88;;
71679;SDS011;59512;42.662;23.254;2022-08-19T07:26:43;15.47;;;9.27;;
71679;SDS011;59512;42.662;23.254;2022-08-19T07:29:09;16.93;;;9.33;;
71679;SDS011;59512;42.662;23.254;2022-08-19T07:31:35;16.10;;;9.10;;
71679;SDS011;59512;42.662;23.254;2022-08-19T07:34:02;15.55;;;9.48;;
71679;SDS011;59512;42.662;23.254;2022-08-19T07:36:28;13.77;;;8.45;;
71679;SDS011;59512;42.662;23.254;2022-08-19T07:38:57;16.70;;;8.98;;
71679;SDS011;59512;42.662;23.254;2022-08-19T07:41:23;19.90;;;8.73;;
71679;SDS011;59512;42.662;23.254;2022-08-19T07:43:49;20.17;;;9.82;;
71679;SDS011;59512;42.662;23.254;2022-08-19T07:46:15;11.43;;;7.57;;
71679;SDS011;59512;42.662;23.254;2022-08-19T07:48:42;13.27;;;8.73;;
71679;SDS011;59512;42.662;23.254;2022-08-19T07:51:08;17.00;;;9.07;;
71679;SDS011;59512;42.662;23.254;2022-08-19T07:53:34;30.45;;;9.20;;
71679;SDS011;59512;42.662;23.254;2022-08-19T07:55:59;16.83;;;8.10;;
71679;SDS011;59512;42.662;23.254;2022-08-19T07:58:29;14.00;;;8.13;;
71679;SDS011;59512;42.662;23.254;2022-08-19T08:00:55;16.33;;;8.00;;
71679;SDS011;59512;42.662;23.254;2022-08-19T08:03:21;13.17;;;7.23;;
71679;SDS011;59512;42.662;23.254;2022-08-19T08:06:06;16.73;;;7.20;;
71679;SDS011;59512;42.662;23.254;2022-08-19T08:08:50;13.20;;;7.38;;
71679;SDS011;59512;42.662;23.254;2022-08-19T08:11:34;12.35;;;7.57;;
71679;SDS011;59512;42.662;23.254;2022-08-19T08:13:59;13.83;;;7.87;;
71679;SDS011;59512;42.662;23.254;2022-08-19T08:16:25;12.73;;;8.25;;
71679;SDS011;59512;42.662;23.254;2022-08-19T08:18:54;14.50;;;7.33;;
71679;SDS011;59512;42.662;23.254;2022-08-19T08:21:20;12.48;;;7.70;;
71679;SDS011;59512;42.662;23.254;2022-08-19T08:23:45;18.50;;;7.80;;
71679;SDS011;59512;42.662;23.254;2022-08-19T08:26:10;12.70;;;6.73;;
71679;SDS011;59512;42.662;23.254;2022-08-19T08:28:38;11.33;;;6.70;;
71679;SDS011;59512;42.662;23.254;2022-08-19T08:31:03;10.48;;;5.93;;
71679;SDS011;59512;42.662;23.254;2022-08-19T08:33:29;11.70;;;6.93;;
71679;SDS011;59512;42.662;23.254;2022-08-19T08:35:55;12.23;;;6.40;;
71679;SDS011;59512;42.662;23.254;2022-08-19T08:38:20;15.23;;;6.63;;
71679;SDS011;59512;42.662;23.254;2022-08-19T08:40:53;14.43;;;6.67;;
71679;SDS011;59512;42.662;23.254;2022-08-19T08:43:27;11.95;;;5.95;;
71679;SDS011;59512;42.662;23.254;2022-08-19T08:46:01;8.98;;;5.40;;
71679;SDS011;59512;42.662;23.254;2022-08-19T08:51:03;11.85;;;5.25;;
71679;SDS011;59512;42.662;23.254;2022-08-19T08:53:29;7.23;;;4.63;;
71679;SDS011;59512;42.662;23.254;2022-08-19T08:55:56;10.70;;;5.40;;
71679;SDS011;59512;42.662;23.254;2022-08-19T08:58:29;9.77;;;5.73;;
71679;SDS011;59512;42.662;23.254;2022-08-19T09:00:56;10.75;;;5.78;;
71679;SDS011;59512;42.662;23.254;2022-08-19T09:03:23;8.40;;;5.00;;
71679;SDS011;59512;42.662;23.254;2022-08-19T09:06:02;7.88;;;5.18;;
71679;SDS011;59512;42.662;23.254;2022-08-19T09:08:54;6.80;;;4.53;;
71679;SDS011;59512;42.662;23.254;2022-08-19T09:11:18;9.18;;;4.97;;
71679;SDS011;59512;42.662;23.254;2022-08-19T09:14:02;7.40;;;4.18;;
71679;SDS011;59512;42.662;23.254;2022-08-19T09:16:29;9.82;;;4.65;;
71679;SDS011;59512;42.662;23.254;2022-08-19T09:18:56;7.50;;;4.40;;
71679;SDS011;59512;42.662;23.254;2022-08-19T09:21:23;6.93;;;4.30;;
71679;SDS011;59512;42.662;23.254;2022-08-19T09:23:49;8.30;;;4.10;;
71679;SDS011;59512;42.662;23.254;2022-08-19T09:26:16;7.03;;;4.23;;
71679;SDS011;59512;42.662;23.254;2022-08-19T09:28:41;7.68;;;4.47;;
71679;SDS011;59512;42.662;23.254;2022-08-19T09:31:12;8.57;;;4.65;;
71679;SDS011;59512;42.662;23.254;2022-08-19T09:33:37;8.13;;;5.22;;
71679;SDS011;59512;42.662;23.254;2022-08-19T09:36:06;7.82;;;4.80;;
71679;SDS011;59512;42.662;23.254;2022-08-19T09:38:33;8.80;;;4.50;;
71679;SDS011;59512;42.662;23.254;2022-08-19T09:41:05;7.75;;;4.53;;
71679;SDS011;59512;42.662;23.254;2022-08-19T09:43:31;8.27;;;4.28;;
71679;SDS011;59512;42.662;23.254;2022-08-19T09:45:57;9.40;;;5.03;;
71679;SDS011;59512;42.662;23.254;2022-08-19T09:48:23;7.90;;;4.47;;
71679;SDS011;59512;42.662;23.254;2022-08-19T09:50:48;6.77;;;4.33;;
71679;SDS011;59512;42.662;23.254;2022-08-19T09:53:15;9.20;;;4.07;;
71679;SDS011;59512;42.662;23.254;2022-08-19T09:55:43;8.93;;;3.83;;
71679;SDS011;59512;42.662;23.254;2022-08-19T09:58:09;6.90;;;3.90;;
71679;SDS011;59512;42.662;23.254;2022-08-19T10:00:36;8.15;;;3.90;;
71679;SDS011;59512;42.662;23.254;2022-08-19T10:03:02;8.52;;;3.97;;
71679;SDS011;59512;42.662;23.254;2022-08-19T10:05:27;7.23;;;4.00;;
71679;SDS011;59512;42.662;23.254;2022-08-19T10:08:11;7.38;;;3.90;;
71679;SDS011;59512;42.662;23.254;2022-08-19T10:10:37;8.18;;;4.18;;
71679;SDS011;59512;42.662;23.254;2022-08-19T10:13:02;8.68;;;3.92;;
71679;SDS011;59512;42.662;23.254;2022-08-19T10:15:29;7.38;;;3.67;;
71679;SDS011;59512;42.662;23.254;2022-08-19T10:17:54;8.57;;;4.20;;
71679;SDS011;59512;42.662;23.254;2022-08-19T10:20:19;6.80;;;3.90;;
71679;SDS011;59512;42.662;23.254;2022-08-19T10:22:44;6.93;;;3.50;;
71679;SDS011;59512;42.662;23.254;2022-08-19T10:25:10;7.07;;;3.20;;
71679;SDS011;59512;42.662;23.254;2022-08-19T10:27:36;7.13;;;3.97;;
71679;SDS011;59512;42.662;23.254;2022-08-19T10:30:02;7.10;;;4.15;;
71679;SDS011;59512;42.662;23.254;2022-08-19T10:32:28;8.27;;;3.97;;
71679;SDS011;59512;42.662;23.254;2022-08-19T10:34:54;7.60;;;3.88;;
71679;SDS011;59512;42.662;23.254;2022-08-19T10:37:20;9.48;;;4.28;;
71679;SDS011;59512;42.662;23.254;2022-08-19T10:39:46;7.33;;;4.33;;
71679;SDS011;59512;42.662;23.254;2022-08-19T10:42:12;8.15;;;5.00;;
71679;SDS011;59512;42.662;23.254;2022-08-19T10:44:38;9.68;;;4.60;;
71679;SDS011;59512;42.662;23.254;2022-08-19T10:47:04;8.13;;;4.57;;
71679;SDS011;59512;42.662;23.254;2022-08-19T10:49:29;9.57;;;5.17;;
71679;SDS011;59512;42.662;23.254;2022-08-19T10:51:55;9.93;;;4.90;;
71679;SDS011;59512;42.662;23.254;2022-08-19T10:54:40;7.35;;;4.97;;
71679;SDS011;59512;42.662;23.254;2022-08-19T10:57:23;8.38;;;4.72;;
71679;SDS011;59512;42.662;23.254;2022-08-19T10:59:54;8.48;;;4.32;;
71679;SDS011;59512;42.662;23.254;2022-08-19T11:02:19;6.80;;;4.30;;
71679;SDS011;59512;42.662;23.254;2022-08-19T11:04:44;7.20;;;4.47;;
71679;SDS011;59512;42.662;23.254;2022-08-19T11:07:09;7.97;;;4.90;;
71679;SDS011;59512;42.662;23.254;2022-08-19T11:09:38;8.68;;;4.70;;
71679;SDS011;59512;42.662;23.254;2022-08-19T11:12:04;8.80;;;4.53;;
71679;SDS011;59512;42.662;23.254;2022-08-19T11:14:30;6.83;;;4.30;;
71679;SDS011;59512;42.662;23.254;2022-08-19T11:16:57;8.18;;;4.70;;
71679;SDS011;59512;42.662;23.254;2022-08-19T11:19:23;8.23;;;4.77;;
71679;SDS011;59512;42.662;23.254;2022-08-19T11:21:49;8.90;;;4.80;;
71679;SDS011;59512;42.662;23.254;2022-08-19T11:24:19;7.33;;;4.60;;
71679;SDS011;59512;42.662;23.254;2022-08-19T11:26:45;8.25;;;4.90;;
71679;SDS011;59512;42.662;23.254;2022-08-19T11:29:11;8.45;;;4.75;;
71679;SDS011;59512;42.662;23.254;2022-08-19T11:31:39;7.47;;;4.68;;
71679;SDS011;59512;42.662;23.254;2022-08-19T11:34:05;8.10;;;4.83;;
71679;SDS011;59512;42.662;23.254;2022-08-19T11:36:32;9.00;;;4.72;;
71679;SDS011;59512;42.662;23.254;2022-08-19T11:38:57;9.32;;;5.30;;
71679;SDS011;59512;42.662;23.254;2022-08-19T11:41:23;9.13;;;5.33;;
71679;SDS011;59512;42.662;23.254;2022-08-19T11:43:52;10.40;;;4.80;;
71679;SDS011;59512;42.662;23.254;2022-08-19T11:46:19;8.95;;;5.22;;
71679;SDS011;59512;42.662;23.254;2022-08-19T11:48:44;8.55;;;4.65;;
71679;SDS011;59512;42.662;23.254;2022-08-19T11:51:11;7.53;;;4.27;;
71679;SDS011;59512;42.662;23.254;2022-08-19T11:53:37;8.73;;;4.40;;
71679;SDS011;59512;42.662;23.254;2022-08-19T11:56:03;8.98;;;4.78;;
71679;SDS011;59512;42.662;23.254;2022-08-19T11:58:29;7.10;;;3.90;;
71679;SDS011;59512;42.662;23.254;2022-08-19T12:00:54;12.97;;;4.67;;
71679;SDS011;59512;42.662;23.254;2022-08-19T12:03:20;13.05;;;5.20;;
71679;SDS011;59512;42.662;23.254;2022-08-19T12:05:45;10.00;;;4.90;;
71679;SDS011;59512;42.662;23.254;2022-08-19T12:08:10;12.70;;;5.17;;
71679;SDS011;59512;42.662;23.254;2022-08-19T12:10:37;13.45;;;5.53;;
71679;SDS011;59512;42.662;23.254;2022-08-19T12:13:03;7.13;;;4.13;;
71679;SDS011;59512;42.662;23.254;2022-08-19T12:15:28;8.85;;;4.53;;
71679;SDS011;59512;42.662;23.254;2022-08-19T12:17:54;8.20;;;4.70;;
71679;SDS011;59512;42.662;23.254;2022-08-19T12:20:21;10.13;;;4.45;;
71679;SDS011;59512;42.662;23.254;2022-08-19T12:22:47;8.07;;;4.67;;
71679;SDS011;59512;42.662;23.254;2022-08-19T12:25:13;7.38;;;4.60;;
71679;SDS011;59512;42.662;23.254;2022-08-19T12:27:39;28.42;;;5.97;;
71679;SDS011;59512;42.662;23.254;2022-08-19T12:30:05;22.73;;;5.37;;
71679;SDS011;59512;42.662;23.254;2022-08-19T12:32:31;9.43;;;4.40;;
71679;SDS011;59512;42.662;23.254;2022-08-19T12:34:56;7.07;;;4.50;;
71679;SDS011;59512;42.662;23.254;2022-08-19T12:37:22;8.95;;;5.07;;
71679;SDS011;59512;42.662;23.254;2022-08-19T12:39:47;7.70;;;4.72;;
71679;SDS011;59512;42.662;23.254;2022-08-19T12:42:13;6.53;;;4.30;;
71679;SDS011;59512;42.662;23.254;2022-08-19T12:44:39;11.68;;;5.18;;
71679;SDS011;59512;42.662;23.254;2022-08-19T12:47:06;7.87;;;4.43;;
71679;SDS011;59512;42.662;23.254;2022-08-19T12:49:31;8.05;;;5.00;;
71679;SDS011;59512;42.662;23.254;2022-08-19T12:51:59;8.50;;;4.50;;
71679;SDS011;59512;42.662;23.254;2022-08-19T12:54:25;12.25;;;4.72;;
71679;SDS011;59512;42.662;23.254;2022-08-19T12:56:50;8.43;;;4.83;;
71679;SDS011;59512;42.662;23.254;2022-08-19T12:59:15;8.30;;;4.47;;
71679;SDS011;59512;42.662;23.254;2022-08-19T13:01:43;9.30;;;4.35;;
71679;SDS011;59512;42.662;23.254;2022-08-19T13:04:08;7.13;;;4.40;;
71679;SDS011;59512;42.662;23.254;2022-08-19T13:06:34;10.27;;;4.40;;
71679;SDS011;59512;42.662;23.254;2022-08-19T13:08:59;8.27;;;4.13;;
71679;SDS011;59512;42.662;23.254;2022-08-19T13:11:24;7.00;;;4.50;;
71679;SDS011;59512;42.662;23.254;2022-08-19T13:13:50;8.80;;;4.50;;
71679;SDS011;59512;42.662;23.254;2022-08-19T13:16:16;8.73;;;4.68;;
71679;SDS011;59512;42.662;23.254;2022-08-19T13:18:41;9.15;;;4.82;;
71679;SDS011;59512;42.662;23.254;2022-08-19T13:21:08;7.20;;;4.30;;
71679;SDS011;59512;42.662;23.254;2022-08-19T13:23:34;8.20;;;4.72;;
71679;SDS011;59512;42.662;23.254;2022-08-19T13:26:03;8.73;;;4.55;;
71679;SDS011;59512;42.662;23.254;2022-08-19T13:28:29;8.57;;;4.65;;
71679;SDS011;59512;42.662;23.254;2022-08-19T13:31:15;10.48;;;4.30;;
71679;SDS011;59512;42.662;23.254;2022-08-19T13:33:59;11.32;;;4.90;;
71679;SDS011;59512;42.662;23.254;2022-08-19T13:36:24;9.73;;;4.63;;
71679;SDS011;59512;42.662;23.254;2022-08-19T13:38:49;7.93;;;4.55;;
71679;SDS011;59512;42.662;23.254;2022-08-19T13:41:14;6.28;;;4.35;;
71679;SDS011;59512;42.662;23.254;2022-08-19T13:43:40;6.93;;;4.53;;
71679;SDS011;59512;42.662;23.254;2022-08-19T13:46:08;8.43;;;4.50;;
71679;SDS011;59512;42.662;23.254;2022-08-19T13:48:34;9.70;;;4.23;;
71679;SDS011;59512;42.662;23.254;2022-08-19T13:50:59;6.82;;;4.25;;
71679;SDS011;59512;42.662;23.254;2022-08-19T13:53:24;7.88;;;4.47;;
71679;SDS011;59512;42.662;23.254;2022-08-19T13:55:50;8.10;;;4.70;;
71679;SDS011;59512;42.662;23.254;2022-08-19T13:58:16;9.87;;;4.70;;
71679;SDS011;59512;42.662;23.254;2022-08-19T14:00:42;6.82;;;4.18;;
71679;SDS011;59512;42.662;23.254;2022-08-19T14:03:08;7.17;;;4.30;;
71679;SDS011;59512;42.662;23.254;2022-08-19T14:05:33;10.45;;;4.63;;
71679;SDS011;59512;42.662;23.254;2022-08-19T14:07:59;9.57;;;4.90;;
71679;SDS011;59512;42.662;23.254;2022-08-19T14:10:25;8.47;;;4.40;;
71679;SDS011;59512;42.662;23.254;2022-08-19T14:12:54;10.10;;;4.78;;
71679;SDS011;59512;42.662;23.254;2022-08-19T14:15:20;8.15;;;4.50;;
71679;SDS011;59512;42.662;23.254;2022-08-19T14:17:46;10.80;;;4.87;;
71679;SDS011;59512;42.662;23.254;2022-08-19T14:20:13;7.93;;;4.38;;
71679;SDS011;59512;42.662;23.254;2022-08-19T14:22:40;8.52;;;4.80;;
71679;SDS011;59512;42.662;23.254;2022-08-19T14:25:07;8.87;;;4.70;;
71679;SDS011;59512;42.662;23.254;2022-08-19T14:27:33;9.70;;;4.93;;
71679;SDS011;59512;42.662;23.254;2022-08-19T14:29:59;8.63;;;4.75;;
71679;SDS011;59512;42.662;23.254;2022-08-19T14:32:24;8.47;;;4.80;;
71679;SDS011;59512;42.662;23.254;2022-08-19T14:34:52;7.28;;;4.50;;